createdAt,value
2018-01-07T00:01:10.642Z,101025.77
2018-01-07T00:03:39.785Z,101030.59
2018-01-07T00:06:09.022Z,101038.16
2018-01-07T00:08:38.382Z,101034.66
2018-01-07T00:11:06.738Z,101037.68
2018-01-07T00:13:35.109Z,101042.37
2018-01-07T00:16:03.790Z,101040.16
2018-01-07T00:18:32.166Z,101043.21
2018-01-07T00:21:00.586Z,101050.63
2018-01-07T00:23:29.785Z,101052.36
2018-01-07T00:25:58.109Z,101051.90
2018-01-07T00:28:30.587Z,101061.06
2018-01-07T00:30:59.681Z,101069.42
2018-01-07T00:33:28.110Z,101078.99
2018-01-07T00:35:57.241Z,101077.69
2018-01-07T00:38:26.730Z,101082.50
2018-01-07T00:40:55.861Z,101094.37
2018-01-07T00:43:24.194Z,101097.41
2018-01-07T00:45:52.577Z,101097.42
2018-01-07T00:48:21.309Z,101107.48
2018-01-07T00:50:51.259Z,101111.83
2018-01-07T00:53:21.063Z,101115.80
2018-01-07T00:55:49.441Z,101125.60
2018-01-07T00:58:19.033Z,101130.66
2018-01-07T01:00:48.313Z,101134.26
2018-01-07T01:03:17.822Z,101138.11
2018-01-07T01:05:46.273Z,101138.64
2018-01-07T01:08:16.286Z,101145.42
2018-01-07T01:10:44.725Z,101145.80
2018-01-07T01:13:13.097Z,101141.48
2018-01-07T01:15:41.494Z,101151.08
2018-01-07T01:18:10.067Z,101153.17
2018-01-07T01:20:38.448Z,101162.47
2018-01-07T01:23:06.798Z,101159.70
2018-01-07T01:25:35.261Z,101162.63
2018-01-07T01:28:04.542Z,101169.19
2018-01-07T01:30:32.877Z,101167.89
2018-01-07T01:33:01.245Z,101177.07
2018-01-07T01:35:29.610Z,101187.13
2018-01-07T01:37:58.025Z,101192.81
2018-01-07T01:40:27.454Z,101193.25
2018-01-07T01:42:56.574Z,101194.99
2018-01-07T01:45:25.701Z,101208.94
2018-01-07T01:47:54.089Z,101209.83
2018-01-07T01:50:23.589Z,101212.42
2018-01-07T01:52:51.936Z,101222.06
2018-01-07T01:55:20.317Z,101222.97
2018-01-07T01:57:48.969Z,101232.49
2018-01-07T02:00:18.045Z,101203.03
2018-01-07T02:02:46.496Z,101200.67
2018-01-07T02:05:14.864Z,101237.70
2018-01-07T02:07:43.666Z,101241.22
2018-01-07T02:10:12.038Z,101252.06
2018-01-07T02:12:40.377Z,101252.78
2018-01-07T02:15:10.293Z,101253.27
2018-01-07T02:17:39.441Z,101259.71
2018-01-07T02:20:08.491Z,101258.83
2018-01-07T02:22:36.802Z,101272.05
2018-01-07T02:25:07.557Z,101267.92
2018-01-07T02:27:35.871Z,101281.34
2018-01-07T02:30:05.229Z,101287.82
2018-01-07T02:32:33.641Z,101286.47
2018-01-07T02:35:01.997Z,101297.34
2018-01-07T02:37:31.441Z,101295.53
2018-01-07T02:39:59.784Z,101302.01
2018-01-07T02:42:28.177Z,101303.32
2018-01-07T02:44:57.176Z,101303.25
2018-01-07T02:47:26.404Z,101308.48
2018-01-07T02:49:54.781Z,101315.41
2018-01-07T02:52:23.197Z,101311.84
2018-01-07T02:54:51.609Z,101317.00
2018-01-07T02:57:20.709Z,101327.90
2018-01-07T02:59:49.881Z,101328.84
2018-01-07T03:02:19.448Z,101333.15
2018-01-07T03:04:47.852Z,101342.78
2018-01-07T03:07:16.630Z,101346.20
2018-01-07T03:09:44.960Z,101350.02
2018-01-07T03:12:14.209Z,101352.69
2018-01-07T03:14:42.556Z,101356.14
2018-01-07T03:17:10.992Z,101361.27
2018-01-07T03:19:39.356Z,101365.55
2018-01-07T03:22:07.696Z,101364.66
2018-01-07T03:24:36.076Z,101372.19
2018-01-07T03:27:04.412Z,101372.02
2018-01-07T03:29:32.776Z,101374.08
2018-01-07T03:32:01.105Z,101374.47
2018-01-07T03:34:29.457Z,101378.41
2018-01-07T03:36:58.600Z,101386.14
2018-01-07T03:39:26.940Z,101388.20
2018-01-07T03:41:55.264Z,101396.02
2018-01-07T03:44:23.624Z,101401.61
2018-01-07T03:46:52.064Z,101399.39
2018-01-07T03:49:21.168Z,101406.36
2018-01-07T03:51:49.544Z,101413.18
2018-01-07T03:54:18.667Z,101408.80
2018-01-07T03:56:47.029Z,101409.20
2018-01-07T03:59:15.349Z,101429.13
2018-01-07T04:01:43.668Z,101433.17
2018-01-07T04:04:12.821Z,101436.42
2018-01-07T04:06:41.152Z,101440.70
2018-01-07T04:09:09.505Z,101395.55
2018-01-07T04:11:38.625Z,101447.63
2018-01-07T04:14:06.996Z,101453.20
2018-01-07T04:16:36.092Z,101454.69
2018-01-07T04:19:05.244Z,101464.91
2018-01-07T04:21:33.626Z,101470.00
2018-01-07T04:24:01.956Z,101470.80
2018-01-07T04:26:30.324Z,101478.20
2018-01-07T04:28:58.702Z,101479.07
2018-01-07T04:31:27.088Z,101483.33
2018-01-07T04:33:55.455Z,101489.80
2018-01-07T04:36:24.597Z,101501.39
2018-01-07T04:38:52.939Z,101504.38
2018-01-07T04:41:21.319Z,101518.26
2018-01-07T04:43:49.639Z,101512.63
2018-01-07T04:46:18.451Z,101506.47
2018-01-07T04:48:47.548Z,101516.93
2018-01-07T04:51:16.676Z,101517.52
2018-01-07T04:53:45.071Z,101521.80
2018-01-07T04:56:13.424Z,101529.61
2018-01-07T04:58:41.787Z,101532.17
2018-01-07T05:01:10.897Z,101532.64
2018-01-07T05:03:39.267Z,101535.28
2018-01-07T05:06:08.389Z,101541.34
2018-01-07T05:08:36.727Z,101544.80
2018-01-07T05:11:05.094Z,101548.28
2018-01-07T05:13:33.423Z,101550.03
2018-01-07T05:16:01.837Z,101551.02
2018-01-07T05:18:30.175Z,101555.80
2018-01-07T05:20:58.520Z,101562.19
2018-01-07T05:23:27.663Z,101573.47
2018-01-07T05:25:55.987Z,101576.81
2018-01-07T05:28:25.116Z,101581.61
2018-01-07T05:30:53.463Z,101589.51
2018-01-07T05:33:22.603Z,101595.08
2018-01-07T05:35:50.971Z,101589.70
2018-01-07T05:38:19.295Z,101596.80
2018-01-07T05:40:47.619Z,101597.71
2018-01-07T05:43:15.975Z,101603.78
2018-01-07T05:45:45.067Z,101608.05
2018-01-07T05:48:14.207Z,101621.81
2018-01-07T05:50:42.583Z,101629.30
2018-01-07T05:53:10.907Z,101635.84
2018-01-07T05:55:39.271Z,101646.97
2018-01-07T05:58:08.370Z,101648.00
2018-01-07T06:00:36.699Z,101655.14
2018-01-07T06:03:05.074Z,101659.03
2018-01-07T06:05:33.391Z,101666.12
2018-01-07T06:08:01.727Z,101671.58
2018-01-07T06:10:30.075Z,101681.08
2018-01-07T06:12:59.167Z,101681.55
2018-01-07T06:15:28.303Z,101698.14
2018-01-07T06:17:56.622Z,101703.74
2018-01-07T06:20:24.947Z,101702.89
2018-01-07T06:22:53.322Z,101708.15
2018-01-07T06:25:21.645Z,101713.26
2018-01-07T06:27:49.982Z,101714.93
2018-01-07T06:30:18.367Z,101727.58
2018-01-07T06:32:46.698Z,101724.18
2018-01-07T06:35:15.048Z,101731.20
2018-01-07T06:37:43.366Z,101742.84
2018-01-07T06:40:12.495Z,101751.54
2018-01-07T06:42:40.863Z,101748.44
2018-01-07T06:45:09.242Z,101756.87
2018-01-07T06:47:37.574Z,101765.89
2018-01-07T06:50:05.982Z,101773.80
2018-01-07T06:52:34.318Z,101778.56
2018-01-07T06:55:02.695Z,101783.77
2018-01-07T06:57:31.074Z,101788.88
2018-01-07T06:59:59.394Z,101791.47
2018-01-07T07:02:27.726Z,101797.69
2018-01-07T07:04:56.191Z,101809.42
2018-01-07T07:07:24.602Z,101814.73
2018-01-07T07:09:52.971Z,101829.55
2018-01-07T07:12:21.314Z,101833.31
2018-01-07T07:14:49.699Z,101839.89
2018-01-07T07:17:18.022Z,101845.20
2018-01-07T07:19:47.124Z,101849.63
2018-01-07T07:22:16.254Z,101853.57
2018-01-07T07:24:44.611Z,101854.80
2018-01-07T07:27:14.323Z,101858.30
2018-01-07T07:29:42.652Z,101862.73
2018-01-07T07:32:11.016Z,101869.36
2018-01-07T07:34:39.379Z,101868.38
2018-01-07T07:37:07.734Z,101878.92
2018-01-07T07:39:36.080Z,101878.86
2018-01-07T07:42:04.456Z,101892.95
2018-01-07T07:44:33.666Z,101880.41
2018-01-07T07:47:02.774Z,101891.45
2018-01-07T07:49:32.642Z,101906.03
2018-01-07T07:52:00.966Z,101902.55
2018-01-07T07:54:29.418Z,101900.33
2018-01-07T07:56:57.782Z,101893.04
2018-01-07T07:59:26.106Z,101891.75
2018-01-07T08:01:54.442Z,101909.92
2018-01-07T08:04:22.800Z,101908.58
2018-01-07T08:06:51.148Z,101914.83
2018-01-07T08:09:19.478Z,101908.56
2018-01-07T08:11:49.338Z,101933.58
2018-01-07T08:14:18.062Z,101926.50
2018-01-07T08:16:46.438Z,101929.43
2018-01-07T08:19:14.786Z,101920.62
2018-01-07T08:21:43.126Z,101933.12
2018-01-07T08:24:12.265Z,101941.08
2018-01-07T08:26:40.674Z,101951.48
2018-01-07T08:29:10.682Z,101949.41
2018-01-07T08:31:39.098Z,101980.44
2018-01-07T08:34:07.489Z,101973.06
2018-01-07T08:36:35.838Z,101972.15
2018-01-07T08:39:04.268Z,101979.18
2018-01-07T08:41:32.628Z,101990.42
2018-01-07T08:44:00.983Z,101991.86
2018-01-07T08:46:37.082Z,101998.93
2018-01-07T08:49:05.540Z,102007.02
2018-01-07T08:51:34.698Z,102013.14
2018-01-07T08:54:03.039Z,102017.84
2018-01-07T08:56:32.145Z,102013.50
2018-01-07T08:59:01.683Z,102019.95
2018-01-07T09:01:30.059Z,102016.98
2018-01-07T09:03:58.393Z,102027.02
2018-01-07T09:06:26.786Z,102034.64
2018-01-07T09:08:55.163Z,102032.89
2018-01-07T09:11:24.633Z,102040.95
2018-01-07T09:13:53.773Z,102039.95
2018-01-07T09:16:22.117Z,102041.16
2018-01-07T09:18:50.489Z,102039.17
2018-01-07T09:21:19.591Z,102046.69
2018-01-07T09:23:47.983Z,102051.19
2018-01-07T09:26:16.314Z,102053.70
2018-01-07T09:28:44.651Z,102059.23
2018-01-07T09:31:13.165Z,102059.59
2018-01-07T09:33:41.527Z,102063.41
2018-01-07T09:36:09.850Z,102061.41
2018-01-07T09:38:38.195Z,102059.63
2018-01-07T09:41:06.590Z,102056.00
2018-01-07T09:43:35.678Z,102054.11
2018-01-07T09:46:04.035Z,102046.18
2018-01-07T09:48:32.361Z,102057.91
2018-01-07T09:51:00.759Z,102067.37
2018-01-07T09:53:29.115Z,102076.91
2018-01-07T09:55:57.469Z,102076.63
2018-01-07T09:58:26.577Z,102088.00
2018-01-07T10:00:55.730Z,102098.47
2018-01-07T10:03:24.102Z,102094.80
2018-01-07T10:05:52.617Z,102100.56
2018-01-07T10:08:21.341Z,102102.11
2018-01-07T10:10:50.877Z,102101.61
2018-01-07T10:13:19.209Z,102107.53
2018-01-07T10:15:49.432Z,102117.05
2018-01-07T10:18:18.589Z,102124.91
2018-01-07T10:20:48.933Z,102121.07
2018-01-07T10:23:18.613Z,102106.90
2018-01-07T10:25:48.846Z,102107.84
2018-01-07T10:28:17.262Z,102106.75
2018-01-07T10:30:45.730Z,102107.78
2018-01-07T10:33:14.841Z,102109.02
2018-01-07T10:35:43.333Z,102112.92
2018-01-07T10:38:11.992Z,102120.23
2018-01-07T10:40:41.133Z,102110.46
2018-01-07T10:43:10.266Z,102112.53
2018-01-07T10:45:38.605Z,102108.92
2018-01-07T10:48:06.974Z,102116.53
2018-01-07T10:50:35.305Z,102125.05
2018-01-07T10:53:03.652Z,102131.98
2018-01-07T10:55:32.065Z,102136.59
2018-01-07T10:58:01.229Z,102138.13
2018-01-07T11:00:29.672Z,102139.97
2018-01-07T11:02:58.241Z,102156.10
2018-01-07T11:05:26.632Z,102152.55
2018-01-07T11:07:55.053Z,102149.88
2018-01-07T11:10:24.249Z,102139.63
2018-01-07T11:12:52.621Z,102143.51
2018-01-07T11:15:20.995Z,102144.06
2018-01-07T11:17:49.383Z,102152.59
2018-01-07T11:20:17.694Z,102163.40
2018-01-07T11:22:46.885Z,102156.25
2018-01-07T11:25:15.309Z,102165.80
2018-01-07T11:27:43.713Z,102162.68
2018-01-07T11:30:12.068Z,102157.73
2018-01-07T11:32:41.390Z,102159.89
2018-01-07T11:35:10.960Z,102171.43
2018-01-07T11:37:39.404Z,102167.68
2018-01-07T11:40:07.756Z,102169.78
2018-01-07T11:42:36.083Z,102166.33
2018-01-07T11:45:05.241Z,102153.99
2018-01-07T11:47:33.640Z,102177.80
2018-01-07T11:50:02.181Z,102171.06
2018-01-07T11:52:30.526Z,102166.98
2018-01-07T11:54:58.910Z,102173.77
2018-01-07T11:57:27.245Z,102175.28
2018-01-07T11:59:55.765Z,102177.94
2018-01-07T12:02:24.257Z,102179.94
2018-01-07T12:04:54.179Z,102187.77
2018-01-07T12:07:25.598Z,102187.19
2018-01-07T12:09:57.516Z,102185.08
2018-01-07T12:12:27.516Z,102181.09
2018-01-07T12:14:56.002Z,102191.36
2018-01-07T12:17:25.512Z,102191.77
2018-01-07T12:19:55.173Z,102191.03
2018-01-07T12:22:23.704Z,102194.55
2018-01-07T12:24:54.688Z,102193.45
2018-01-07T12:27:23.204Z,102188.53
2018-01-07T12:29:52.348Z,102195.72
2018-01-07T12:32:31.252Z,102194.30
2018-01-07T12:35:00.593Z,102196.95
2018-01-07T12:37:29.005Z,102191.64
2018-01-07T12:39:57.356Z,102203.17
2018-01-07T12:42:25.700Z,102198.03
2018-01-07T12:44:54.988Z,102196.17
2018-01-07T12:47:24.516Z,102202.67
2018-01-07T12:49:54.175Z,102201.28
2018-01-07T12:52:23.174Z,102202.33
2018-01-07T12:54:52.120Z,102201.73
2018-01-07T12:57:21.404Z,102212.55
2018-01-07T12:59:51.444Z,102215.06
2018-01-07T13:02:22.090Z,102216.98
2018-01-07T13:04:52.299Z,102214.58
2018-01-07T13:07:20.832Z,102208.31
2018-01-07T13:09:49.423Z,102210.10
2018-01-07T13:12:20.349Z,102209.64
2018-01-07T13:14:48.889Z,102204.03
2018-01-07T13:17:19.484Z,102206.61
2018-01-07T13:19:48.553Z,102208.77
2018-01-07T13:22:17.004Z,102208.55
2018-01-07T13:24:46.581Z,102210.41
2018-01-07T13:27:15.440Z,102206.87
2018-01-07T13:29:43.800Z,102210.19
2018-01-07T13:32:13.764Z,102218.85
2018-01-07T13:34:43.776Z,102211.06
2018-01-07T13:37:13.827Z,102214.91
2018-01-07T13:39:42.264Z,102224.24
2018-01-07T13:42:10.743Z,102216.25
2018-01-07T13:44:40.053Z,102223.78
2018-01-07T13:47:10.344Z,102231.80
2018-01-07T13:49:39.335Z,102233.68
2018-01-07T13:52:09.445Z,102234.11
2018-01-07T13:54:37.905Z,102239.86
2018-01-07T13:57:09.024Z,102243.41
2018-01-07T13:59:41.034Z,102244.26
2018-01-07T14:02:20.316Z,102246.33
2018-01-07T14:04:53.127Z,102244.98
2018-01-07T14:07:24.933Z,102263.90
2018-01-07T14:09:55.484Z,102276.66
2018-01-07T14:12:25.527Z,102277.97
2018-01-07T14:14:53.943Z,102274.45
2018-01-07T14:17:39.202Z,102278.53
2018-01-07T14:20:07.713Z,102281.50
2018-01-07T14:22:36.896Z,102284.43
2018-01-07T14:25:05.280Z,102281.95
2018-01-07T14:27:33.723Z,102287.89
2018-01-07T14:30:02.144Z,102290.64
2018-01-07T14:32:30.531Z,102308.18
2018-01-07T14:34:58.867Z,102302.44
2018-01-07T14:37:27.267Z,102312.88
2018-01-07T14:39:56.302Z,102312.02
2018-01-07T14:42:25.455Z,102310.83
2018-01-07T14:44:53.988Z,102314.55
2018-01-07T14:47:22.431Z,102316.28
2018-01-07T14:49:50.825Z,102311.13
2018-01-07T14:52:19.170Z,102313.25
2018-01-07T14:54:47.819Z,102315.11
2018-01-07T14:57:16.281Z,102315.98
2018-01-07T14:59:44.669Z,102318.55
2018-01-07T15:02:13.103Z,102315.41
2018-01-07T15:04:41.459Z,102327.55
2018-01-07T15:07:09.852Z,102331.52
2018-01-07T15:09:38.491Z,102339.42
2018-01-07T15:12:06.879Z,102350.45
2018-01-07T15:14:35.219Z,102349.73
2018-01-07T15:17:07.052Z,102354.88
2018-01-07T15:19:36.394Z,102348.33
2018-01-07T15:22:05.727Z,102347.56
2018-01-07T15:24:34.193Z,102346.81
2018-01-07T15:27:02.517Z,102359.64
2018-01-07T15:29:30.904Z,102360.95
2018-01-07T15:31:59.244Z,102359.61
2018-01-07T15:34:27.674Z,102363.31
2018-01-07T15:36:57.101Z,102361.98
2018-01-07T15:39:26.410Z,102357.16
2018-01-07T15:41:54.746Z,102353.97
2018-01-07T15:44:23.124Z,102351.91
2018-01-07T15:46:51.467Z,102337.81
2018-01-07T15:49:19.850Z,102346.44
2018-01-07T15:51:49.123Z,102358.82
2018-01-07T15:54:19.506Z,102362.82
2018-01-07T15:56:48.494Z,102358.97
2018-01-07T15:59:17.151Z,102343.59
2018-01-07T16:01:47.173Z,102363.36
2018-01-07T16:04:16.763Z,102364.89
2018-01-07T16:06:45.301Z,102366.59
2018-01-07T16:09:15.387Z,102362.41
2018-01-07T16:11:43.975Z,102367.03
2018-01-07T16:14:14.752Z,102359.73
2018-01-07T16:16:44.980Z,102360.50
2018-01-07T16:19:13.516Z,102357.91
2018-01-07T16:21:41.916Z,102358.94
2018-01-07T16:24:13.031Z,102361.89
2018-01-07T16:26:43.676Z,102368.53
2018-01-07T16:29:12.798Z,102369.30
2018-01-07T16:31:41.361Z,102366.62
2018-01-07T16:34:10.576Z,102370.15
2018-01-07T16:36:39.971Z,102385.67
2018-01-07T16:39:09.208Z,102384.64
2018-01-07T16:41:37.830Z,102392.48
2018-01-07T16:44:06.716Z,102390.98
2018-01-07T16:46:36.154Z,102393.56
2018-01-07T16:49:04.684Z,102396.80
2018-01-07T16:51:33.256Z,102398.01
2018-01-07T16:54:05.694Z,102413.34
2018-01-07T16:56:35.596Z,102431.09
2018-01-07T16:59:05.576Z,102417.23
2018-01-07T17:01:38.481Z,102415.86
2018-01-07T17:04:09.059Z,102418.92
2018-01-07T17:06:37.698Z,102424.94
2018-01-07T17:09:09.008Z,102418.02
2018-01-07T17:11:38.567Z,102419.53
2018-01-07T17:14:07.843Z,102417.20
2018-01-07T17:16:40.383Z,102427.27
2018-01-07T17:19:10.042Z,102421.62
2018-01-07T17:21:39.054Z,102427.30
2018-01-07T17:24:07.403Z,102430.19
2018-01-07T17:26:36.543Z,102427.47
2018-01-07T17:29:04.875Z,102433.66
2018-01-07T17:31:34.823Z,102437.57
2018-01-07T17:34:03.693Z,102434.78
2018-01-07T17:36:33.725Z,102428.29
2018-01-07T17:39:03.790Z,102437.28
2018-01-07T17:41:32.158Z,102433.39
2018-01-07T17:44:00.546Z,102433.60
2018-01-07T17:46:29.234Z,102433.81
2018-01-07T17:48:58.416Z,102436.13
2018-01-07T17:51:27.258Z,102426.85
2018-01-07T17:53:57.443Z,102440.20
2018-01-07T17:56:32.097Z,102440.95
2018-01-07T17:59:01.355Z,102447.02
2018-01-07T18:01:29.788Z,102453.92
2018-01-07T18:03:59.491Z,102458.92
2018-01-07T18:06:28.025Z,102460.97
2018-01-07T18:08:57.202Z,102465.15
2018-01-07T18:11:25.719Z,102466.71
2018-01-07T18:13:54.306Z,102464.17
2018-01-07T18:16:22.876Z,102473.41
2018-01-07T18:18:51.425Z,102474.59
2018-01-07T18:21:20.095Z,102476.04
2018-01-07T18:23:49.506Z,102485.42
2018-01-07T18:26:17.942Z,102489.35
2018-01-07T18:28:47.521Z,102488.42
2018-01-07T18:31:15.882Z,102488.73
2018-01-07T18:33:47.406Z,102482.58
2018-01-07T18:36:18.177Z,102475.97
2018-01-07T18:38:47.447Z,102478.30
2018-01-07T18:41:17.477Z,102490.08
2018-01-07T18:43:46.945Z,102486.70
2018-01-07T18:46:16.597Z,102485.31
2018-01-07T18:48:44.957Z,102489.50
2018-01-07T18:51:13.407Z,102492.64
2018-01-07T18:53:42.663Z,102495.94
2018-01-07T18:56:12.608Z,102492.92
2018-01-07T18:58:41.837Z,102492.19
2018-01-07T19:01:10.270Z,102495.23
2018-01-07T19:03:39.675Z,102496.94
2018-01-07T19:06:08.013Z,102505.12
2018-01-07T19:08:36.361Z,102500.02
2018-01-07T19:11:06.407Z,102492.50
2018-01-07T19:13:36.290Z,102488.14
2018-01-07T19:16:05.082Z,102488.79
2018-01-07T19:18:35.091Z,102503.52
2018-01-07T19:21:03.616Z,102508.23
2018-01-07T19:23:31.984Z,102511.70
2018-01-07T19:26:00.352Z,102510.95
2018-01-07T19:28:29.546Z,102514.09
2018-01-07T19:30:59.237Z,102513.98
2018-01-07T19:33:27.636Z,102505.27
2018-01-07T19:35:56.029Z,102505.25
2018-01-07T19:38:26.862Z,102501.20
2018-01-07T19:40:55.295Z,102498.68
2018-01-07T19:43:24.509Z,102496.69
2018-01-07T19:45:55.250Z,102500.11
2018-01-07T19:48:25.210Z,102502.59
2018-01-07T19:50:53.646Z,102496.23
2018-01-07T19:53:23.192Z,102490.69
2018-01-07T19:55:52.758Z,102491.63
2018-01-07T19:58:21.919Z,102494.34
2018-01-07T20:00:52.829Z,102491.63
2018-01-07T20:03:21.484Z,102492.59
2018-01-07T20:05:51.432Z,102493.47
2018-01-07T20:08:20.842Z,102494.70
2018-01-07T20:10:50.619Z,102495.80
2018-01-07T20:13:19.035Z,102507.79
2018-01-07T20:15:48.870Z,102505.66
2018-01-07T20:18:19.032Z,102518.23
2018-01-07T20:20:47.548Z,102520.44
2018-01-07T20:23:16.909Z,102518.38
2018-01-07T20:25:49.964Z,102517.98
2018-01-07T20:28:18.321Z,102517.18
2018-01-07T20:30:47.473Z,102511.51
2018-01-07T20:33:16.687Z,102506.08
2018-01-07T20:35:46.226Z,102509.89
2018-01-07T20:38:19.418Z,102505.73
2018-01-07T20:40:52.707Z,102509.48
2018-01-07T20:43:22.444Z,102515.13
2018-01-07T20:45:51.824Z,102506.53
2018-01-07T20:48:22.736Z,102509.50
2018-01-07T20:50:51.116Z,102514.09
2018-01-07T20:53:19.453Z,102515.61
2018-01-07T20:55:49.584Z,102520.16
2018-01-07T20:58:19.816Z,102523.64
2018-01-07T21:00:48.259Z,102520.34
2018-01-07T21:03:16.600Z,102522.57
2018-01-07T21:05:45.088Z,102528.19
2018-01-07T21:08:15.134Z,102530.31
2018-01-07T21:10:44.425Z,102531.63
2018-01-07T21:13:12.759Z,102534.32
2018-01-07T21:15:41.187Z,102544.22
2018-01-07T21:18:09.536Z,102539.08
2018-01-07T21:20:37.916Z,102542.04
2018-01-07T21:23:06.294Z,102543.77
2018-01-07T21:25:34.684Z,102543.23
2018-01-07T21:28:03.056Z,102550.92
2018-01-07T21:30:31.477Z,102554.25
2018-01-07T21:33:00.724Z,102548.36
2018-01-07T21:35:29.087Z,102542.98
2018-01-07T21:37:57.759Z,102549.22
2018-01-07T21:40:26.923Z,102546.27
2018-01-07T21:42:55.258Z,102551.63
2018-01-07T21:45:23.639Z,102548.02
2018-01-07T21:47:51.976Z,102549.14
2018-01-07T21:50:21.124Z,102543.30
2018-01-07T21:52:50.340Z,102546.66
2018-01-07T21:55:18.693Z,102541.22
2018-01-07T21:57:47.039Z,102540.84
2018-01-07T22:00:45.819Z,102541.13
2018-01-07T22:03:32.489Z,102540.89
2018-01-07T22:06:18.496Z,102537.34
2018-01-07T22:08:46.831Z,102533.48
2018-01-07T22:11:15.220Z,102533.31
2018-01-07T22:13:43.555Z,102540.62
2018-01-07T22:16:11.947Z,102543.32
2018-01-07T22:18:40.351Z,102543.50
2018-01-07T22:21:08.719Z,102544.67
2018-01-07T22:23:37.117Z,102542.64
2018-01-07T22:26:05.463Z,102539.28
2018-01-07T22:28:33.871Z,102545.66
2018-01-07T22:31:02.292Z,102537.84
2018-01-07T22:33:31.391Z,102537.76
2018-01-07T22:36:00.639Z,102533.98
2018-01-07T22:38:28.983Z,102534.92
2018-01-07T22:40:57.359Z,102535.50
2018-01-07T22:43:25.709Z,102542.20
2018-01-07T22:45:54.903Z,102541.34
2018-01-07T22:48:23.251Z,102544.72
2018-01-07T22:50:51.603Z,102546.55
2018-01-07T22:53:19.980Z,102544.76
2018-01-07T22:55:48.323Z,102541.03
2018-01-07T22:58:17.423Z,102538.34
2018-01-07T23:00:46.567Z,102539.69
2018-01-07T23:03:14.912Z,102542.37
2018-01-07T23:05:43.379Z,102545.92
2018-01-07T23:08:11.755Z,102544.57
2018-01-07T23:10:41.230Z,102548.53
2018-01-07T23:13:09.615Z,102544.35
2018-01-07T23:15:38.022Z,102555.44
2018-01-07T23:18:06.412Z,102552.25
2018-01-07T23:20:34.735Z,102558.53
2018-01-07T23:23:03.099Z,102552.52
2018-01-07T23:25:31.527Z,102560.55
2018-01-07T23:28:00.635Z,102563.11
2018-01-07T23:30:28.983Z,102559.28
2018-01-07T23:32:57.358Z,102555.97
2018-01-07T23:35:25.690Z,102549.88
2018-01-07T23:37:54.066Z,102548.93
2018-01-07T23:40:22.493Z,102549.78
2018-01-07T23:42:50.838Z,102554.25
2018-01-07T23:45:19.214Z,102558.58
2018-01-07T23:47:47.566Z,102562.21
2018-01-07T23:50:15.943Z,102566.23
2018-01-07T23:52:44.290Z,102558.55
2018-01-07T23:55:12.663Z,102561.19
2018-01-07T23:57:41.058Z,102565.28
